sensor_id;sensor_type;location;lat;lon;timestamp;P1;durP1;ratioP1;P2;durP2;ratioP2
36247;SDS011;22287;50.824;5.644;2023-02-23T00:01:26;43.67;;;27.60;;
36247;SDS011;22287;50.824;5.644;2023-02-23T00:03:55;39.30;;;26.27;;
36247;SDS011;22287;50.824;5.644;2023-02-23T00:06:24;42.22;;;27.90;;
36247;SDS011;22287;50.824;5.644;2023-02-23T00:08:53;44.28;;;28.65;;
36247;SDS011;22287;50.824;5.644;2023-02-23T00:11:20;46.72;;;29.13;;
36247;SDS011;22287;50.824;5.644;2023-02-23T00:13:47;42.35;;;28.17;;
36247;SDS011;22287;50.824;5.644;2023-02-23T00:16:19;47.85;;;30.25;;
36247;SDS011;22287;50.824;5.644;2023-02-23T00:18:51;47.00;;;30.08;;
36247;SDS011;22287;50.824;5.644;2023-02-23T00:23:51;49.75;;;30.63;;
36247;SDS011;22287;50.824;5.644;2023-02-23T00:26:29;52.03;;;30.90;;
36247;SDS011;22287;50.824;5.644;2023-02-23T00:29:03;53.63;;;30.77;;
36247;SDS011;22287;50.824;5.644;2023-02-23T00:31:34;51.50;;;31.02;;
36247;SDS011;22287;50.824;5.644;2023-02-23T00:34:04;48.90;;;29.25;;
36247;SDS011;22287;50.824;5.644;2023-02-23T00:36:31;48.60;;;28.00;;
36247;SDS011;22287;50.824;5.644;2023-02-23T00:39:01;44.00;;;27.20;;
36247;SDS011;22287;50.824;5.644;2023-02-23T00:41:44;47.95;;;28.00;;
36247;SDS011;22287;50.824;5.644;2023-02-23T00:44:12;49.22;;;29.08;;
36247;SDS011;22287;50.824;5.644;2023-02-23T00:46:43;49.17;;;28.58;;
36247;SDS011;22287;50.824;5.644;2023-02-23T00:49:11;48.33;;;28.23;;
36247;SDS011;22287;50.824;5.644;2023-02-23T00:51:40;51.30;;;28.60;;
36247;SDS011;22287;50.824;5.644;2023-02-23T00:54:07;52.22;;;30.30;;
36247;SDS011;22287;50.824;5.644;2023-02-23T00:56:35;51.13;;;30.73;;
36247;SDS011;22287;50.824;5.644;2023-02-23T00:59:04;52.78;;;31.23;;
36247;SDS011;22287;50.824;5.644;2023-02-23T01:01:32;52.90;;;29.77;;
36247;SDS011;22287;50.824;5.644;2023-02-23T01:04:00;51.30;;;29.58;;
36247;SDS011;22287;50.824;5.644;2023-02-23T01:06:28;47.35;;;29.25;;
36247;SDS011;22287;50.824;5.644;2023-02-23T01:08:56;48.90;;;28.58;;
36247;SDS011;22287;50.824;5.644;2023-02-23T01:11:24;52.03;;;29.65;;
36247;SDS011;22287;50.824;5.644;2023-02-23T01:13:56;51.95;;;30.42;;
36247;SDS011;22287;50.824;5.644;2023-02-23T01:16:26;52.63;;;30.45;;
36247;SDS011;22287;50.824;5.644;2023-02-23T01:18:55;46.63;;;28.48;;
36247;SDS011;22287;50.824;5.644;2023-02-23T01:21:26;49.53;;;27.75;;
36247;SDS011;22287;50.824;5.644;2023-02-23T01:23:55;49.72;;;29.67;;
36247;SDS011;22287;50.824;5.644;2023-02-23T01:28:59;52.47;;;28.83;;
36247;SDS011;22287;50.824;5.644;2023-02-23T01:31:28;53.05;;;31.23;;
36247;SDS011;22287;50.824;5.644;2023-02-23T01:33:56;49.05;;;29.35;;
36247;SDS011;22287;50.824;5.644;2023-02-23T01:36:25;53.03;;;30.77;;
36247;SDS011;22287;50.824;5.644;2023-02-23T01:38:54;51.15;;;30.15;;
36247;SDS011;22287;50.824;5.644;2023-02-23T01:41:26;46.83;;;28.48;;
36247;SDS011;22287;50.824;5.644;2023-02-23T01:44:06;44.83;;;29.58;;
36247;SDS011;22287;50.824;5.644;2023-02-23T01:46:54;47.65;;;27.73;;
36247;SDS011;22287;50.824;5.644;2023-02-23T01:49:28;46.25;;;28.42;;
36247;SDS011;22287;50.824;5.644;2023-02-23T01:54:37;49.60;;;29.17;;
36247;SDS011;22287;50.824;5.644;2023-02-23T01:57:10;49.55;;;28.63;;
36247;SDS011;22287;50.824;5.644;2023-02-23T02:02:08;46.45;;;28.33;;
36247;SDS011;22287;50.824;5.644;2023-02-23T02:04:35;45.65;;;27.38;;
36247;SDS011;22287;50.824;5.644;2023-02-23T02:07:21;48.42;;;29.80;;
36247;SDS011;22287;50.824;5.644;2023-02-23T02:09:51;51.45;;;30.30;;
36247;SDS011;22287;50.824;5.644;2023-02-23T02:12:42;52.25;;;31.17;;
36247;SDS011;22287;50.824;5.644;2023-02-23T02:15:11;53.60;;;30.85;;
36247;SDS011;22287;50.824;5.644;2023-02-23T02:43:25;54.20;;;30.67;;
36247;SDS011;22287;50.824;5.644;2023-02-23T02:46:09;50.83;;;30.95;;
36247;SDS011;22287;50.824;5.644;2023-02-23T02:51:26;48.78;;;28.83;;
36247;SDS011;22287;50.824;5.644;2023-02-23T02:54:09;49.78;;;29.92;;
36247;SDS011;22287;50.824;5.644;2023-02-23T02:56:46;52.08;;;29.35;;
36247;SDS011;22287;50.824;5.644;2023-02-23T02:59:16;52.67;;;31.13;;
36247;SDS011;22287;50.824;5.644;2023-02-23T03:02:04;51.25;;;30.42;;
36247;SDS011;22287;50.824;5.644;2023-02-23T03:04:50;53.53;;;30.35;;
36247;SDS011;22287;50.824;5.644;2023-02-23T03:07:39;53.58;;;31.58;;
36247;SDS011;22287;50.824;5.644;2023-02-23T03:10:41;49.08;;;28.83;;
36247;SDS011;22287;50.824;5.644;2023-02-23T03:23:04;51.40;;;30.27;;
36247;SDS011;22287;50.824;5.644;2023-02-23T03:26:01;50.72;;;31.50;;
36247;SDS011;22287;50.824;5.644;2023-02-23T03:31:47;51.63;;;31.73;;
36247;SDS011;22287;50.824;5.644;2023-02-23T03:34:42;52.70;;;30.58;;
36247;SDS011;22287;50.824;5.644;2023-02-23T03:37:36;60.15;;;32.03;;
36247;SDS011;22287;50.824;5.644;2023-02-23T03:43:27;48.03;;;29.63;;
36247;SDS011;22287;50.824;5.644;2023-02-23T03:46:18;48.97;;;29.80;;
36247;SDS011;22287;50.824;5.644;2023-02-23T03:49:07;53.50;;;31.13;;
36247;SDS011;22287;50.824;5.644;2023-02-23T03:51:57;49.60;;;30.85;;
36247;SDS011;22287;50.824;5.644;2023-02-23T03:54:53;45.70;;;28.42;;
36247;SDS011;22287;50.824;5.644;2023-02-23T03:57:42;52.83;;;29.55;;
36247;SDS011;22287;50.824;5.644;2023-02-23T04:00:32;52.28;;;29.40;;
36247;SDS011;22287;50.824;5.644;2023-02-23T04:03:22;55.25;;;30.83;;
36247;SDS011;22287;50.824;5.644;2023-02-23T04:06:11;55.90;;;31.80;;
36247;SDS011;22287;50.824;5.644;2023-02-23T04:09:00;54.10;;;31.27;;
36247;SDS011;22287;50.824;5.644;2023-02-23T04:11:55;54.33;;;31.52;;
36247;SDS011;22287;50.824;5.644;2023-02-23T04:17:38;56.08;;;32.13;;
36247;SDS011;22287;50.824;5.644;2023-02-23T04:20:05;61.75;;;33.08;;
36247;SDS011;22287;50.824;5.644;2023-02-23T04:22:32;57.55;;;32.47;;
36247;SDS011;22287;50.824;5.644;2023-02-23T04:25:00;51.15;;;29.75;;
36247;SDS011;22287;50.824;5.644;2023-02-23T04:27:27;52.53;;;32.17;;
36247;SDS011;22287;50.824;5.644;2023-02-23T04:29:54;59.88;;;34.30;;
36247;SDS011;22287;50.824;5.644;2023-02-23T04:32:21;58.30;;;33.20;;
36247;SDS011;22287;50.824;5.644;2023-02-23T04:34:48;54.95;;;31.88;;
36247;SDS011;22287;50.824;5.644;2023-02-23T04:37:15;55.72;;;31.67;;
36247;SDS011;22287;50.824;5.644;2023-02-23T04:39:42;48.22;;;28.67;;
36247;SDS011;22287;50.824;5.644;2023-02-23T04:42:14;54.47;;;29.92;;
36247;SDS011;22287;50.824;5.644;2023-02-23T04:44:41;54.13;;;30.42;;
36247;SDS011;22287;50.824;5.644;2023-02-23T04:47:08;50.83;;;30.38;;
36247;SDS011;22287;50.824;5.644;2023-02-23T04:49:35;53.63;;;30.58;;
36247;SDS011;22287;50.824;5.644;2023-02-23T04:52:02;51.05;;;31.35;;
36247;SDS011;22287;50.824;5.644;2023-02-23T04:54:29;55.22;;;30.98;;
36247;SDS011;22287;50.824;5.644;2023-02-23T04:56:56;49.90;;;30.13;;
36247;SDS011;22287;50.824;5.644;2023-02-23T04:59:23;49.03;;;27.73;;
36247;SDS011;22287;50.824;5.644;2023-02-23T05:01:50;43.72;;;28.15;;
36247;SDS011;22287;50.824;5.644;2023-02-23T05:04:16;42.60;;;26.52;;
36247;SDS011;22287;50.824;5.644;2023-02-23T05:06:43;48.03;;;26.30;;
36247;SDS011;22287;50.824;5.644;2023-02-23T05:09:10;47.17;;;27.23;;
36247;SDS011;22287;50.824;5.644;2023-02-23T05:11:37;44.22;;;26.92;;
36247;SDS011;22287;50.824;5.644;2023-02-23T05:14:03;43.08;;;27.05;;
36247;SDS011;22287;50.824;5.644;2023-02-23T05:16:30;47.97;;;26.05;;
36247;SDS011;22287;50.824;5.644;2023-02-23T05:18:58;47.28;;;26.98;;
36247;SDS011;22287;50.824;5.644;2023-02-23T05:21:25;38.22;;;25.88;;
36247;SDS011;22287;50.824;5.644;2023-02-23T05:23:52;47.97;;;27.65;;
36247;SDS011;22287;50.824;5.644;2023-02-23T05:26:19;43.33;;;26.63;;
36247;SDS011;22287;50.824;5.644;2023-02-23T05:28:46;43.05;;;25.75;;
36247;SDS011;22287;50.824;5.644;2023-02-23T05:31:12;41.20;;;25.83;;
36247;SDS011;22287;50.824;5.644;2023-02-23T05:33:40;42.30;;;26.30;;
36247;SDS011;22287;50.824;5.644;2023-02-23T05:36:12;43.13;;;24.23;;
36247;SDS011;22287;50.824;5.644;2023-02-23T05:38:42;40.78;;;25.27;;
36247;SDS011;22287;50.824;5.644;2023-02-23T05:41:11;40.28;;;23.90;;
36247;SDS011;22287;50.824;5.644;2023-02-23T05:43:40;46.25;;;26.67;;
36247;SDS011;22287;50.824;5.644;2023-02-23T05:46:08;40.00;;;25.20;;
36247;SDS011;22287;50.824;5.644;2023-02-23T05:48:36;36.03;;;23.83;;
36247;SDS011;22287;50.824;5.644;2023-02-23T05:51:03;41.13;;;25.00;;
36247;SDS011;22287;50.824;5.644;2023-02-23T05:53:32;36.28;;;23.38;;
36247;SDS011;22287;50.824;5.644;2023-02-23T05:56:00;35.78;;;23.23;;
36247;SDS011;22287;50.824;5.644;2023-02-23T05:58:28;36.95;;;22.88;;
36247;SDS011;22287;50.824;5.644;2023-02-23T06:00:55;38.13;;;24.10;;
36247;SDS011;22287;50.824;5.644;2023-02-23T06:03:22;38.88;;;24.40;;
36247;SDS011;22287;50.824;5.644;2023-02-23T06:05:53;36.03;;;22.92;;
36247;SDS011;22287;50.824;5.644;2023-02-23T06:08:21;34.50;;;22.73;;
36247;SDS011;22287;50.824;5.644;2023-02-23T06:10:52;35.08;;;22.73;;
36247;SDS011;22287;50.824;5.644;2023-02-23T06:13:19;34.75;;;22.15;;
36247;SDS011;22287;50.824;5.644;2023-02-23T06:15:49;37.58;;;23.23;;
36247;SDS011;22287;50.824;5.644;2023-02-23T06:18:15;37.25;;;22.38;;
36247;SDS011;22287;50.824;5.644;2023-02-23T06:20:44;34.90;;;23.45;;
36247;SDS011;22287;50.824;5.644;2023-02-23T06:23:12;35.47;;;23.33;;
36247;SDS011;22287;50.824;5.644;2023-02-23T06:25:41;38.80;;;24.27;;
36247;SDS011;22287;50.824;5.644;2023-02-23T06:28:09;40.42;;;25.33;;
36247;SDS011;22287;50.824;5.644;2023-02-23T06:30:36;39.55;;;25.05;;
36247;SDS011;22287;50.824;5.644;2023-02-23T06:33:04;36.55;;;23.55;;
36247;SDS011;22287;50.824;5.644;2023-02-23T06:35:32;37.38;;;23.67;;
36247;SDS011;22287;50.824;5.644;2023-02-23T06:38:00;36.60;;;23.48;;
36247;SDS011;22287;50.824;5.644;2023-02-23T06:40:27;39.45;;;23.80;;
36247;SDS011;22287;50.824;5.644;2023-02-23T06:42:54;36.22;;;24.15;;
36247;SDS011;22287;50.824;5.644;2023-02-23T06:45:21;42.22;;;25.48;;
36247;SDS011;22287;50.824;5.644;2023-02-23T06:47:48;35.92;;;23.20;;
36247;SDS011;22287;50.824;5.644;2023-02-23T06:50:15;37.38;;;23.92;;
36247;SDS011;22287;50.824;5.644;2023-02-23T06:52:42;40.67;;;25.40;;
36247;SDS011;22287;50.824;5.644;2023-02-23T06:55:10;39.20;;;23.33;;
36247;SDS011;22287;50.824;5.644;2023-02-23T06:57:38;41.35;;;23.95;;
36247;SDS011;22287;50.824;5.644;2023-02-23T07:00:06;48.47;;;27.38;;
36247;SDS011;22287;50.824;5.644;2023-02-23T07:02:34;43.85;;;25.90;;
36247;SDS011;22287;50.824;5.644;2023-02-23T07:05:03;45.88;;;26.27;;
36247;SDS011;22287;50.824;5.644;2023-02-23T07:07:30;47.08;;;26.23;;
36247;SDS011;22287;50.824;5.644;2023-02-23T07:09:58;44.78;;;26.08;;
36247;SDS011;22287;50.824;5.644;2023-02-23T07:12:25;49.42;;;27.02;;
36247;SDS011;22287;50.824;5.644;2023-02-23T07:14:51;42.20;;;23.65;;
36247;SDS011;22287;50.824;5.644;2023-02-23T07:17:18;47.85;;;27.25;;
36247;SDS011;22287;50.824;5.644;2023-02-23T07:19:45;51.75;;;28.27;;
36247;SDS011;22287;50.824;5.644;2023-02-23T07:22:12;54.75;;;28.38;;
36247;SDS011;22287;50.824;5.644;2023-02-23T07:24:39;54.13;;;28.75;;
36247;SDS011;22287;50.824;5.644;2023-02-23T07:27:06;56.90;;;30.35;;
36247;SDS011;22287;50.824;5.644;2023-02-23T07:29:33;49.47;;;27.50;;
36247;SDS011;22287;50.824;5.644;2023-02-23T07:32:00;57.00;;;29.88;;
36247;SDS011;22287;50.824;5.644;2023-02-23T07:34:26;55.63;;;27.20;;
36247;SDS011;22287;50.824;5.644;2023-02-23T07:36:53;57.08;;;28.85;;
36247;SDS011;22287;50.824;5.644;2023-02-23T07:39:20;57.03;;;30.30;;
36247;SDS011;22287;50.824;5.644;2023-02-23T07:41:47;53.50;;;28.20;;
36247;SDS011;22287;50.824;5.644;2023-02-23T07:44:17;55.40;;;29.13;;
36247;SDS011;22287;50.824;5.644;2023-02-23T07:46:44;50.60;;;27.52;;
36247;SDS011;22287;50.824;5.644;2023-02-23T07:49:11;53.45;;;28.08;;
36247;SDS011;22287;50.824;5.644;2023-02-23T07:51:39;50.65;;;27.08;;
36247;SDS011;22287;50.824;5.644;2023-02-23T07:54:06;50.13;;;27.08;;
36247;SDS011;22287;50.824;5.644;2023-02-23T07:56:33;49.03;;;27.40;;
36247;SDS011;22287;50.824;5.644;2023-02-23T07:59:00;51.70;;;26.85;;
36247;SDS011;22287;50.824;5.644;2023-02-23T08:01:27;45.50;;;24.52;;
36247;SDS011;22287;50.824;5.644;2023-02-23T08:03:54;46.63;;;26.08;;
36247;SDS011;22287;50.824;5.644;2023-02-23T08:06:21;48.80;;;26.52;;
36247;SDS011;22287;50.824;5.644;2023-02-23T08:08:48;45.17;;;25.13;;
36247;SDS011;22287;50.824;5.644;2023-02-23T08:11:14;49.33;;;26.08;;
36247;SDS011;22287;50.824;5.644;2023-02-23T08:13:42;45.95;;;25.95;;
36247;SDS011;22287;50.824;5.644;2023-02-23T08:16:08;51.70;;;27.15;;
36247;SDS011;22287;50.824;5.644;2023-02-23T08:18:37;46.30;;;25.58;;
36247;SDS011;22287;50.824;5.644;2023-02-23T08:21:04;52.30;;;28.00;;
36247;SDS011;22287;50.824;5.644;2023-02-23T08:23:32;43.45;;;24.48;;
36247;SDS011;22287;50.824;5.644;2023-02-23T08:26:00;46.85;;;25.80;;
36247;SDS011;22287;50.824;5.644;2023-02-23T08:28:27;45.78;;;24.38;;
36247;SDS011;22287;50.824;5.644;2023-02-23T08:30:56;46.10;;;26.13;;
36247;SDS011;22287;50.824;5.644;2023-02-23T08:33:24;44.95;;;25.42;;
36247;SDS011;22287;50.824;5.644;2023-02-23T08:35:51;45.65;;;24.98;;
36247;SDS011;22287;50.824;5.644;2023-02-23T08:38:19;49.22;;;27.25;;
36247;SDS011;22287;50.824;5.644;2023-02-23T08:40:46;42.25;;;25.05;;
36247;SDS011;22287;50.824;5.644;2023-02-23T08:43:13;41.90;;;25.40;;
36247;SDS011;22287;50.824;5.644;2023-02-23T08:45:41;49.10;;;26.60;;
36247;SDS011;22287;50.824;5.644;2023-02-23T08:48:08;41.65;;;25.25;;
36247;SDS011;22287;50.824;5.644;2023-02-23T08:50:35;43.50;;;24.95;;
36247;SDS011;22287;50.824;5.644;2023-02-23T08:53:01;43.28;;;24.00;;
36247;SDS011;22287;50.824;5.644;2023-02-23T08:55:29;42.40;;;24.42;;
36247;SDS011;22287;50.824;5.644;2023-02-23T08:57:56;50.38;;;25.05;;
36247;SDS011;22287;50.824;5.644;2023-02-23T09:00:23;53.72;;;24.00;;
36247;SDS011;22287;50.824;5.644;2023-02-23T09:02:50;57.65;;;25.60;;
36247;SDS011;22287;50.824;5.644;2023-02-23T09:05:17;55.25;;;25.27;;
36247;SDS011;22287;50.824;5.644;2023-02-23T09:07:44;60.65;;;26.92;;
36247;SDS011;22287;50.824;5.644;2023-02-23T09:10:12;67.97;;;28.13;;
36247;SDS011;22287;50.824;5.644;2023-02-23T09:12:41;63.65;;;25.83;;
36247;SDS011;22287;50.824;5.644;2023-02-23T09:15:08;68.05;;;27.13;;
36247;SDS011;22287;50.824;5.644;2023-02-23T09:17:35;67.60;;;27.45;;
36247;SDS011;22287;50.824;5.644;2023-02-23T09:20:03;74.82;;;26.95;;
36247;SDS011;22287;50.824;5.644;2023-02-23T09:22:30;72.97;;;27.00;;
36247;SDS011;22287;50.824;5.644;2023-02-23T09:24:57;69.68;;;27.77;;
36247;SDS011;22287;50.824;5.644;2023-02-23T09:27:24;68.10;;;28.63;;
36247;SDS011;22287;50.824;5.644;2023-02-23T09:29:51;74.95;;;29.00;;
36247;SDS011;22287;50.824;5.644;2023-02-23T09:32:18;74.03;;;29.65;;
36247;SDS011;22287;50.824;5.644;2023-02-23T09:34:45;80.53;;;28.80;;
36247;SDS011;22287;50.824;5.644;2023-02-23T09:37:13;80.40;;;27.42;;
36247;SDS011;22287;50.824;5.644;2023-02-23T09:39:41;73.38;;;27.10;;
36247;SDS011;22287;50.824;5.644;2023-02-23T09:42:14;71.40;;;26.05;;
36247;SDS011;22287;50.824;5.644;2023-02-23T09:49:58;62.92;;;24.65;;
36247;SDS011;22287;50.824;5.644;2023-02-23T09:52:35;64.05;;;24.27;;
36247;SDS011;22287;50.824;5.644;2023-02-23T09:55:05;58.65;;;24.35;;
36247;SDS011;22287;50.824;5.644;2023-02-23T09:57:36;57.33;;;22.02;;
36247;SDS011;22287;50.824;5.644;2023-02-23T10:00:26;56.05;;;22.15;;
36247;SDS011;22287;50.824;5.644;2023-02-23T10:05:36;53.63;;;21.63;;
36247;SDS011;22287;50.824;5.644;2023-02-23T10:11:20;52.55;;;20.05;;
36247;SDS011;22287;50.824;5.644;2023-02-23T10:22:17;41.85;;;19.02;;
36247;SDS011;22287;50.824;5.644;2023-02-23T10:24:49;43.85;;;19.33;;
36247;SDS011;22287;50.824;5.644;2023-02-23T10:27:23;47.05;;;20.35;;
36247;SDS011;22287;50.824;5.644;2023-02-23T10:29:56;49.47;;;20.05;;
36247;SDS011;22287;50.824;5.644;2023-02-23T10:35:00;47.47;;;20.30;;
36247;SDS011;22287;50.824;5.644;2023-02-23T10:37:34;47.45;;;21.55;;
36247;SDS011;22287;50.824;5.644;2023-02-23T10:40:03;48.17;;;21.33;;
36247;SDS011;22287;50.824;5.644;2023-02-23T10:42:31;51.40;;;21.27;;
36247;SDS011;22287;50.824;5.644;2023-02-23T10:44:58;52.70;;;22.65;;
36247;SDS011;22287;50.824;5.644;2023-02-23T10:47:26;61.47;;;24.23;;
36247;SDS011;22287;50.824;5.644;2023-02-23T10:49:56;55.65;;;23.45;;
36247;SDS011;22287;50.824;5.644;2023-02-23T10:55:18;59.40;;;24.67;;
36247;SDS011;22287;50.824;5.644;2023-02-23T10:57:49;62.38;;;25.20;;
36247;SDS011;22287;50.824;5.644;2023-02-23T11:00:27;59.97;;;23.98;;
36247;SDS011;22287;50.824;5.644;2023-02-23T11:02:59;66.13;;;25.20;;
36247;SDS011;22287;50.824;5.644;2023-02-23T11:05:44;70.78;;;27.23;;
36247;SDS011;22287;50.824;5.644;2023-02-23T11:08:20;68.32;;;26.90;;
36247;SDS011;22287;50.824;5.644;2023-02-23T11:11:00;68.07;;;27.05;;
36247;SDS011;22287;50.824;5.644;2023-02-23T11:13:28;66.50;;;28.40;;
36247;SDS011;22287;50.824;5.644;2023-02-23T11:16:11;66.55;;;25.77;;
36247;SDS011;22287;50.824;5.644;2023-02-23T11:18:40;71.80;;;28.60;;
36247;SDS011;22287;50.824;5.644;2023-02-23T11:21:21;72.45;;;29.75;;
36247;SDS011;22287;50.824;5.644;2023-02-23T11:26:50;66.53;;;25.48;;
36247;SDS011;22287;50.824;5.644;2023-02-23T11:29:30;62.97;;;26.50;;
36247;SDS011;22287;50.824;5.644;2023-02-23T11:34:40;64.97;;;26.55;;
36247;SDS011;22287;50.824;5.644;2023-02-23T11:42:55;54.17;;;23.33;;
36247;SDS011;22287;50.824;5.644;2023-02-23T11:45:24;52.88;;;23.02;;
36247;SDS011;22287;50.824;5.644;2023-02-23T11:47:53;49.92;;;23.10;;
36247;SDS011;22287;50.824;5.644;2023-02-23T11:53:01;52.17;;;21.67;;
36247;SDS011;22287;50.824;5.644;2023-02-23T11:55:30;52.67;;;22.20;;
36247;SDS011;22287;50.824;5.644;2023-02-23T12:00:54;47.65;;;20.75;;
36247;SDS011;22287;50.824;5.644;2023-02-23T12:03:26;48.47;;;19.25;;
36247;SDS011;22287;50.824;5.644;2023-02-23T12:05:56;41.58;;;19.02;;
36247;SDS011;22287;50.824;5.644;2023-02-23T12:10:59;47.33;;;20.27;;
36247;SDS011;22287;50.824;5.644;2023-02-23T12:13:45;41.90;;;17.98;;
36247;SDS011;22287;50.824;5.644;2023-02-23T12:41:25;32.40;;;15.50;;
36247;SDS011;22287;50.824;5.644;2023-02-23T12:46:47;32.40;;;15.40;;
36247;SDS011;22287;50.824;5.644;2023-02-23T12:51:55;30.83;;;13.45;;
36247;SDS011;22287;50.824;5.644;2023-02-23T12:54:47;32.40;;;14.40;;
36247;SDS011;22287;50.824;5.644;2023-02-23T13:02:32;32.13;;;14.95;;
36247;SDS011;22287;50.824;5.644;2023-02-23T13:08:04;27.35;;;13.20;;
36247;SDS011;22287;50.824;5.644;2023-02-23T13:21:36;29.23;;;13.40;;
36247;SDS011;22287;50.824;5.644;2023-02-23T13:24:10;26.30;;;12.98;;
36247;SDS011;22287;50.824;5.644;2023-02-23T13:26:46;26.05;;;13.25;;
36247;SDS011;22287;50.824;5.644;2023-02-23T13:31:50;29.58;;;13.70;;
36247;SDS011;22287;50.824;5.644;2023-02-23T13:34:25;27.55;;;12.90;;
36247;SDS011;22287;50.824;5.644;2023-02-23T13:36:55;25.25;;;12.68;;
36247;SDS011;22287;50.824;5.644;2023-02-23T13:45:19;31.67;;;14.07;;
36247;SDS011;22287;50.824;5.644;2023-02-23T13:50:59;28.00;;;13.40;;
36247;SDS011;22287;50.824;5.644;2023-02-23T13:56:03;26.92;;;13.65;;
36247;SDS011;22287;50.824;5.644;2023-02-23T13:58:33;30.70;;;13.30;;
36247;SDS011;22287;50.824;5.644;2023-02-23T14:01:05;30.90;;;13.52;;
36247;SDS011;22287;50.824;5.644;2023-02-23T14:03:38;28.80;;;13.52;;
36247;SDS011;22287;50.824;5.644;2023-02-23T14:06:11;31.15;;;14.07;;
36247;SDS011;22287;50.824;5.644;2023-02-23T14:08:40;32.00;;;14.48;;
36247;SDS011;22287;50.824;5.644;2023-02-23T14:11:15;30.13;;;14.13;;
36247;SDS011;22287;50.824;5.644;2023-02-23T14:13:58;29.73;;;13.55;;
36247;SDS011;22287;50.824;5.644;2023-02-23T14:16:26;28.65;;;14.68;;
36247;SDS011;22287;50.824;5.644;2023-02-23T14:21:34;32.65;;;15.32;;
36247;SDS011;22287;50.824;5.644;2023-02-23T14:24:22;28.38;;;15.05;;
36247;SDS011;22287;50.824;5.644;2023-02-23T14:29:30;32.20;;;14.80;;
36247;SDS011;22287;50.824;5.644;2023-02-23T14:34:56;32.75;;;15.70;;
36247;SDS011;22287;50.824;5.644;2023-02-23T14:37:27;30.08;;;14.43;;
36247;SDS011;22287;50.824;5.644;2023-02-23T14:40:31;32.58;;;15.07;;
36247;SDS011;22287;50.824;5.644;2023-02-23T14:42:57;33.47;;;15.18;;
36247;SDS011;22287;50.824;5.644;2023-02-23T14:45:30;35.80;;;15.52;;
36247;SDS011;22287;50.824;5.644;2023-02-23T14:48:04;31.60;;;14.02;;
36247;SDS011;22287;50.824;5.644;2023-02-23T14:50:35;31.92;;;15.75;;
36247;SDS011;22287;50.824;5.644;2023-02-23T14:53:05;31.25;;;14.40;;
36247;SDS011;22287;50.824;5.644;2023-02-23T14:55:39;33.67;;;15.55;;
36247;SDS011;22287;50.824;5.644;2023-02-23T15:00:56;36.05;;;14.95;;
36247;SDS011;22287;50.824;5.644;2023-02-23T15:03:23;30.83;;;14.55;;
36247;SDS011;22287;50.824;5.644;2023-02-23T15:05:52;33.95;;;15.65;;
36247;SDS011;22287;50.824;5.644;2023-02-23T15:08:22;32.42;;;14.95;;
36247;SDS011;22287;50.824;5.644;2023-02-23T15:10:52;31.45;;;14.77;;
36247;SDS011;22287;50.824;5.644;2023-02-23T15:13:32;30.85;;;14.73;;
36247;SDS011;22287;50.824;5.644;2023-02-23T15:16:10;30.52;;;15.43;;
36247;SDS011;22287;50.824;5.644;2023-02-23T15:18:41;30.55;;;15.95;;
36247;SDS011;22287;50.824;5.644;2023-02-23T15:21:17;30.15;;;14.18;;
36247;SDS011;22287;50.824;5.644;2023-02-23T15:23:49;30.75;;;14.32;;
36247;SDS011;22287;50.824;5.644;2023-02-23T15:26:25;31.55;;;13.45;;
36247;SDS011;22287;50.824;5.644;2023-02-23T15:31:36;27.98;;;13.02;;
36247;SDS011;22287;50.824;5.644;2023-02-23T15:34:08;24.70;;;13.10;;
36247;SDS011;22287;50.824;5.644;2023-02-23T15:36:36;27.58;;;13.73;;
36247;SDS011;22287;50.824;5.644;2023-02-23T15:39:06;29.75;;;14.27;;
36247;SDS011;22287;50.824;5.644;2023-02-23T15:41:39;30.92;;;15.23;;
36247;SDS011;22287;50.824;5.644;2023-02-23T15:44:12;28.25;;;14.45;;
36247;SDS011;22287;50.824;5.644;2023-02-23T15:46:48;28.98;;;13.65;;
36247;SDS011;22287;50.824;5.644;2023-02-23T15:49:21;30.45;;;14.68;;
36247;SDS011;22287;50.824;5.644;2023-02-23T15:51:58;28.80;;;14.68;;
36247;SDS011;22287;50.824;5.644;2023-02-23T15:54:29;28.55;;;14.07;;
36247;SDS011;22287;50.824;5.644;2023-02-23T15:57:01;31.35;;;14.00;;
36247;SDS011;22287;50.824;5.644;2023-02-23T15:59:35;27.25;;;14.00;;
36247;SDS011;22287;50.824;5.644;2023-02-23T16:02:09;28.02;;;13.73;;
36247;SDS011;22287;50.824;5.644;2023-02-23T16:04:45;28.88;;;14.07;;
36247;SDS011;22287;50.824;5.644;2023-02-23T16:07:19;29.92;;;15.18;;
36247;SDS011;22287;50.824;5.644;2023-02-23T16:12:18;32.67;;;15.85;;
36247;SDS011;22287;50.824;5.644;2023-02-23T16:14:55;30.65;;;15.95;;
36247;SDS011;22287;50.824;5.644;2023-02-23T16:22:39;29.38;;;15.18;;
36247;SDS011;22287;50.824;5.644;2023-02-23T16:25:12;32.55;;;14.43;;
36247;SDS011;22287;50.824;5.644;2023-02-23T16:27:42;32.53;;;15.38;;
36247;SDS011;22287;50.824;5.644;2023-02-23T16:32:44;28.42;;;14.77;;
36247;SDS011;22287;50.824;5.644;2023-02-23T16:37:48;32.15;;;14.80;;
36247;SDS011;22287;50.824;5.644;2023-02-23T16:40:18;29.33;;;14.05;;
36247;SDS011;22287;50.824;5.644;2023-02-23T16:42:45;32.47;;;15.30;;
36247;SDS011;22287;50.824;5.644;2023-02-23T16:45:13;31.70;;;15.52;;
36247;SDS011;22287;50.824;5.644;2023-02-23T16:47:43;31.38;;;14.68;;
36247;SDS011;22287;50.824;5.644;2023-02-23T16:50:17;29.42;;;15.02;;
36247;SDS011;22287;50.824;5.644;2023-02-23T16:52:47;28.05;;;13.57;;
36247;SDS011;22287;50.824;5.644;2023-02-23T16:55:23;30.60;;;14.63;;
36247;SDS011;22287;50.824;5.644;2023-02-23T16:57:53;31.40;;;14.75;;
36247;SDS011;22287;50.824;5.644;2023-02-23T17:00:23;34.30;;;16.40;;
36247;SDS011;22287;50.824;5.644;2023-02-23T17:02:55;33.90;;;15.65;;
36247;SDS011;22287;50.824;5.644;2023-02-23T17:05:23;28.27;;;13.70;;
36247;SDS011;22287;50.824;5.644;2023-02-23T17:07:50;30.73;;;15.13;;
36247;SDS011;22287;50.824;5.644;2023-02-23T17:10:19;28.90;;;14.27;;
36247;SDS011;22287;50.824;5.644;2023-02-23T17:12:52;30.65;;;14.77;;
36247;SDS011;22287;50.824;5.644;2023-02-23T17:15:19;27.80;;;14.32;;
36247;SDS011;22287;50.824;5.644;2023-02-23T17:17:47;31.23;;;14.15;;
36247;SDS011;22287;50.824;5.644;2023-02-23T17:20:14;34.20;;;15.05;;
36247;SDS011;22287;50.824;5.644;2023-02-23T17:22:43;31.63;;;14.77;;
36247;SDS011;22287;50.824;5.644;2023-02-23T17:25:10;26.27;;;12.70;;
36247;SDS011;22287;50.824;5.644;2023-02-23T17:27:37;28.20;;;13.57;;
36247;SDS011;22287;50.824;5.644;2023-02-23T17:30:04;24.08;;;11.57;;
36247;SDS011;22287;50.824;5.644;2023-02-23T17:32:32;21.90;;;11.15;;
36247;SDS011;22287;50.824;5.644;2023-02-23T17:34:59;25.02;;;11.20;;
36247;SDS011;22287;50.824;5.644;2023-02-23T17:37:27;21.77;;;10.90;;
36247;SDS011;22287;50.824;5.644;2023-02-23T17:39:54;23.92;;;11.38;;
36247;SDS011;22287;50.824;5.644;2023-02-23T17:42:20;20.92;;;10.35;;
36247;SDS011;22287;50.824;5.644;2023-02-23T17:44:49;22.95;;;10.95;;
36247;SDS011;22287;50.824;5.644;2023-02-23T17:47:16;20.50;;;9.77;;
36247;SDS011;22287;50.824;5.644;2023-02-23T17:49:43;20.42;;;10.23;;
36247;SDS011;22287;50.824;5.644;2023-02-23T17:52:09;20.20;;;9.95;;
36247;SDS011;22287;50.824;5.644;2023-02-23T17:54:36;17.70;;;9.25;;
36247;SDS011;22287;50.824;5.644;2023-02-23T17:57:03;19.40;;;9.00;;